sensor_id;sensor_type;location;lat;lon;timestamp;temperature;humidity
18163;DHT22;9206;50.994;4.538;2022-10-16T00:02:36;13.00;99.90
18163;DHT22;9206;50.994;4.538;2022-10-16T00:05:30;13.00;99.90
18163;DHT22;9206;50.994;4.538;2022-10-16T00:08:23;13.00;99.90
18163;DHT22;9206;50.994;4.538;2022-10-16T00:11:21;13.00;99.90
18163;DHT22;9206;50.994;4.538;2022-10-16T00:14:13;13.00;99.90
18163;DHT22;9206;50.994;4.538;2022-10-16T00:17:06;12.90;99.90
18163;DHT22;9206;50.994;4.538;2022-10-16T00:20:00;13.00;99.90
18163;DHT22;9206;50.994;4.538;2022-10-16T00:22:49;13.00;99.90
18163;DHT22;9206;50.994;4.538;2022-10-16T00:25:43;12.90;99.90
18163;DHT22;9206;50.994;4.538;2022-10-16T00:28:37;12.90;99.90
18163;DHT22;9206;50.994;4.538;2022-10-16T00:31:31;12.90;99.90
18163;DHT22;9206;50.994;4.538;2022-10-16T00:34:21;12.90;99.90
18163;DHT22;9206;50.994;4.538;2022-10-16T00:37:12;12.90;99.90
18163;DHT22;9206;50.994;4.538;2022-10-16T00:40:06;12.90;99.90
18163;DHT22;9206;50.994;4.538;2022-10-16T00:42:59;12.90;99.90
18163;DHT22;9206;50.994;4.538;2022-10-16T00:45:48;12.90;99.90
18163;DHT22;9206;50.994;4.538;2022-10-16T00:48:47;12.90;99.90
18163;DHT22;9206;50.994;4.538;2022-10-16T00:51:43;12.90;99.90
18163;DHT22;9206;50.994;4.538;2022-10-16T00:54:33;12.90;99.90
18163;DHT22;9206;50.994;4.538;2022-10-16T00:57:21;12.90;99.90
18163;DHT22;9206;50.994;4.538;2022-10-16T01:00:16;12.90;99.90
18163;DHT22;9206;50.994;4.538;2022-10-16T01:03:26;13.00;99.90
18163;DHT22;9206;50.994;4.538;2022-10-16T01:06:23;13.10;99.90
18163;DHT22;9206;50.994;4.538;2022-10-16T01:09:17;13.10;99.90
18163;DHT22;9206;50.994;4.538;2022-10-16T01:12:11;13.10;99.90
18163;DHT22;9206;50.994;4.538;2022-10-16T01:15:08;13.10;99.90
18163;DHT22;9206;50.994;4.538;2022-10-16T01:18:01;13.20;99.90
18163;DHT22;9206;50.994;4.538;2022-10-16T01:21:00;13.20;99.90
18163;DHT22;9206;50.994;4.538;2022-10-16T01:23:58;13.30;99.90
18163;DHT22;9206;50.994;4.538;2022-10-16T01:27:05;13.20;99.90
18163;DHT22;9206;50.994;4.538;2022-10-16T01:30:06;13.30;99.90
18163;DHT22;9206;50.994;4.538;2022-10-16T01:33:05;13.20;99.90
18163;DHT22;9206;50.994;4.538;2022-10-16T01:36:04;13.20;99.90
18163;DHT22;9206;50.994;4.538;2022-10-16T01:39:00;13.10;99.90
18163;DHT22;9206;50.994;4.538;2022-10-16T01:41:51;13.10;99.90
18163;DHT22;9206;50.994;4.538;2022-10-16T01:44:42;13.10;99.90
18163;DHT22;9206;50.994;4.538;2022-10-16T01:47:31;13.20;99.90
18163;DHT22;9206;50.994;4.538;2022-10-16T01:50:22;13.00;99.90
18163;DHT22;9206;50.994;4.538;2022-10-16T01:53:16;13.10;99.90
18163;DHT22;9206;50.994;4.538;2022-10-16T01:56:06;13.10;99.90
18163;DHT22;9206;50.994;4.538;2022-10-16T01:58:57;13.00;99.90
18163;DHT22;9206;50.994;4.538;2022-10-16T02:01:52;13.10;99.90
18163;DHT22;9206;50.994;4.538;2022-10-16T02:04:44;13.10;99.90
18163;DHT22;9206;50.994;4.538;2022-10-16T02:07:32;13.10;99.90
18163;DHT22;9206;50.994;4.538;2022-10-16T02:10:20;13.10;99.90
18163;DHT22;9206;50.994;4.538;2022-10-16T02:13:17;13.10;99.90
18163;DHT22;9206;50.994;4.538;2022-10-16T02:16:05;13.10;99.90
18163;DHT22;9206;50.994;4.538;2022-10-16T02:18:54;13.10;99.90
18163;DHT22;9206;50.994;4.538;2022-10-16T02:21:45;13.00;99.90
18163;DHT22;9206;50.994;4.538;2022-10-16T02:24:37;13.00;99.90
18163;DHT22;9206;50.994;4.538;2022-10-16T02:27:30;13.10;99.90
18163;DHT22;9206;50.994;4.538;2022-10-16T02:30:27;13.00;99.90
18163;DHT22;9206;50.994;4.538;2022-10-16T02:33:22;13.10;99.90
18163;DHT22;9206;50.994;4.538;2022-10-16T02:36:12;13.10;99.90
18163;DHT22;9206;50.994;4.538;2022-10-16T02:38:59;13.10;99.90
18163;DHT22;9206;50.994;4.538;2022-10-16T02:41:52;13.10;99.90
18163;DHT22;9206;50.994;4.538;2022-10-16T02:44:42;13.00;99.90
18163;DHT22;9206;50.994;4.538;2022-10-16T02:47:36;13.10;99.90
18163;DHT22;9206;50.994;4.538;2022-10-16T02:50:27;13.00;99.90
18163;DHT22;9206;50.994;4.538;2022-10-16T02:53:17;13.00;99.90
18163;DHT22;9206;50.994;4.538;2022-10-16T02:56:10;13.00;99.90
18163;DHT22;9206;50.994;4.538;2022-10-16T02:58:57;12.90;99.90
18163;DHT22;9206;50.994;4.538;2022-10-16T03:01:51;12.90;99.90
18163;DHT22;9206;50.994;4.538;2022-10-16T03:04:44;13.00;99.90
18163;DHT22;9206;50.994;4.538;2022-10-16T03:07:50;13.00;99.90
18163;DHT22;9206;50.994;4.538;2022-10-16T03:10:40;13.00;99.90
18163;DHT22;9206;50.994;4.538;2022-10-16T03:13:33;13.00;99.90
18163;DHT22;9206;50.994;4.538;2022-10-16T03:16:26;13.00;99.90
18163;DHT22;9206;50.994;4.538;2022-10-16T03:19:17;13.10;99.90
18163;DHT22;9206;50.994;4.538;2022-10-16T03:22:10;13.10;99.90
18163;DHT22;9206;50.994;4.538;2022-10-16T03:25:00;13.10;99.90
18163;DHT22;9206;50.994;4.538;2022-10-16T03:27:50;13.00;99.90
18163;DHT22;9206;50.994;4.538;2022-10-16T03:30:43;13.00;99.90
18163;DHT22;9206;50.994;4.538;2022-10-16T03:33:37;13.00;99.90
18163;DHT22;9206;50.994;4.538;2022-10-16T03:36:24;13.00;99.90
18163;DHT22;9206;50.994;4.538;2022-10-16T03:39:12;13.00;99.90
18163;DHT22;9206;50.994;4.538;2022-10-16T03:42:02;13.00;99.90
18163;DHT22;9206;50.994;4.538;2022-10-16T03:45:15;13.00;99.90
18163;DHT22;9206;50.994;4.538;2022-10-16T03:48:03;13.10;99.90
18163;DHT22;9206;50.994;4.538;2022-10-16T03:50:51;13.10;99.90
18163;DHT22;9206;50.994;4.538;2022-10-16T03:53:41;13.00;99.90
18163;DHT22;9206;50.994;4.538;2022-10-16T03:56:30;13.00;99.90
18163;DHT22;9206;50.994;4.538;2022-10-16T03:59:17;13.10;99.90
18163;DHT22;9206;50.994;4.538;2022-10-16T04:02:07;13.00;99.90
18163;DHT22;9206;50.994;4.538;2022-10-16T04:04:58;13.00;99.90
18163;DHT22;9206;50.994;4.538;2022-10-16T04:07:45;13.00;99.90
18163;DHT22;9206;50.994;4.538;2022-10-16T04:10:43;13.00;99.90
18163;DHT22;9206;50.994;4.538;2022-10-16T04:13:31;13.00;99.90
18163;DHT22;9206;50.994;4.538;2022-10-16T04:16:20;13.00;99.90
18163;DHT22;9206;50.994;4.538;2022-10-16T04:19:11;12.90;99.90
18163;DHT22;9206;50.994;4.538;2022-10-16T04:22:01;12.80;99.90
18163;DHT22;9206;50.994;4.538;2022-10-16T04:24:59;12.80;99.90
18163;DHT22;9206;50.994;4.538;2022-10-16T04:27:52;12.80;99.90
18163;DHT22;9206;50.994;4.538;2022-10-16T04:30:46;12.80;99.90
18163;DHT22;9206;50.994;4.538;2022-10-16T04:33:34;12.80;99.90
18163;DHT22;9206;50.994;4.538;2022-10-16T04:36:25;12.80;99.90
18163;DHT22;9206;50.994;4.538;2022-10-16T04:39:15;12.80;99.90
18163;DHT22;9206;50.994;4.538;2022-10-16T04:42:04;12.80;99.90
18163;DHT22;9206;50.994;4.538;2022-10-16T04:44:57;12.80;99.90
18163;DHT22;9206;50.994;4.538;2022-10-16T04:47:45;12.70;99.90
18163;DHT22;9206;50.994;4.538;2022-10-16T04:50:39;12.60;99.90
18163;DHT22;9206;50.994;4.538;2022-10-16T04:53:33;12.60;99.90
18163;DHT22;9206;50.994;4.538;2022-10-16T04:56:23;12.60;99.90
18163;DHT22;9206;50.994;4.538;2022-10-16T04:59:10;12.50;99.90
18163;DHT22;9206;50.994;4.538;2022-10-16T05:01:59;12.50;99.90
18163;DHT22;9206;50.994;4.538;2022-10-16T05:04:48;12.50;99.90
18163;DHT22;9206;50.994;4.538;2022-10-16T05:07:39;12.50;99.90
18163;DHT22;9206;50.994;4.538;2022-10-16T05:10:29;12.40;99.90
18163;DHT22;9206;50.994;4.538;2022-10-16T05:13:22;12.40;99.90
18163;DHT22;9206;50.994;4.538;2022-10-16T05:16:19;12.40;99.90
18163;DHT22;9206;50.994;4.538;2022-10-16T05:19:09;12.40;99.90
18163;DHT22;9206;50.994;4.538;2022-10-16T05:22:08;12.40;99.90
18163;DHT22;9206;50.994;4.538;2022-10-16T05:24:56;12.40;99.90
18163;DHT22;9206;50.994;4.538;2022-10-16T05:27:47;12.30;99.90
18163;DHT22;9206;50.994;4.538;2022-10-16T05:30:37;12.30;99.90
18163;DHT22;9206;50.994;4.538;2022-10-16T05:33:27;12.40;99.90
18163;DHT22;9206;50.994;4.538;2022-10-16T05:36:15;12.40;99.90
18163;DHT22;9206;50.994;4.538;2022-10-16T05:39:06;12.40;99.90
18163;DHT22;9206;50.994;4.538;2022-10-16T05:41:53;12.40;99.90
18163;DHT22;9206;50.994;4.538;2022-10-16T05:44:42;12.30;99.90
18163;DHT22;9206;50.994;4.538;2022-10-16T05:47:29;12.30;99.90
18163;DHT22;9206;50.994;4.538;2022-10-16T05:50:19;12.30;99.90
18163;DHT22;9206;50.994;4.538;2022-10-16T05:53:07;12.30;99.90
18163;DHT22;9206;50.994;4.538;2022-10-16T05:55:56;12.20;99.90
18163;DHT22;9206;50.994;4.538;2022-10-16T05:58:50;12.30;99.90
18163;DHT22;9206;50.994;4.538;2022-10-16T06:01:44;12.30;99.90
18163;DHT22;9206;50.994;4.538;2022-10-16T06:04:34;12.40;99.90
18163;DHT22;9206;50.994;4.538;2022-10-16T06:07:22;12.40;99.90
18163;DHT22;9206;50.994;4.538;2022-10-16T06:10:11;12.40;99.90
18163;DHT22;9206;50.994;4.538;2022-10-16T06:13:01;12.40;99.90
18163;DHT22;9206;50.994;4.538;2022-10-16T06:15:57;12.40;99.90
18163;DHT22;9206;50.994;4.538;2022-10-16T06:18:55;12.40;99.90
18163;DHT22;9206;50.994;4.538;2022-10-16T06:21:47;12.40;99.90
18163;DHT22;9206;50.994;4.538;2022-10-16T06:24:35;12.50;99.90
18163;DHT22;9206;50.994;4.538;2022-10-16T06:27:26;12.60;99.90
18163;DHT22;9206;50.994;4.538;2022-10-16T06:30:14;12.60;99.90
18163;DHT22;9206;50.994;4.538;2022-10-16T06:33:02;12.60;99.90
18163;DHT22;9206;50.994;4.538;2022-10-16T06:36:11;12.60;99.90
18163;DHT22;9206;50.994;4.538;2022-10-16T06:39:00;12.60;99.90
18163;DHT22;9206;50.994;4.538;2022-10-16T06:41:49;12.80;99.90
18163;DHT22;9206;50.994;4.538;2022-10-16T06:44:39;12.90;99.90
18163;DHT22;9206;50.994;4.538;2022-10-16T06:47:29;13.00;99.90
18163;DHT22;9206;50.994;4.538;2022-10-16T06:50:22;13.10;99.90
18163;DHT22;9206;50.994;4.538;2022-10-16T06:53:13;13.20;99.90
18163;DHT22;9206;50.994;4.538;2022-10-16T06:56:07;13.30;99.90
18163;DHT22;9206;50.994;4.538;2022-10-16T06:58:55;13.40;99.90
18163;DHT22;9206;50.994;4.538;2022-10-16T07:01:45;13.50;99.90
18163;DHT22;9206;50.994;4.538;2022-10-16T07:04:36;13.60;99.90
18163;DHT22;9206;50.994;4.538;2022-10-16T07:10:43;13.80;99.90
18163;DHT22;9206;50.994;4.538;2022-10-16T07:13:39;14.00;99.90
18163;DHT22;9206;50.994;4.538;2022-10-16T07:16:32;14.20;99.90
18163;DHT22;9206;50.994;4.538;2022-10-16T07:19:41;14.30;99.90
18163;DHT22;9206;50.994;4.538;2022-10-16T07:22:49;14.30;99.90
18163;DHT22;9206;50.994;4.538;2022-10-16T07:29:59;14.30;99.90
18163;DHT22;9206;50.994;4.538;2022-10-16T07:32:52;14.30;99.90
18163;DHT22;9206;50.994;4.538;2022-10-16T07:35:48;14.20;99.90
18163;DHT22;9206;50.994;4.538;2022-10-16T07:38:47;14.20;99.90
18163;DHT22;9206;50.994;4.538;2022-10-16T07:41:39;14.20;99.90
18163;DHT22;9206;50.994;4.538;2022-10-16T07:44:27;14.30;99.90
18163;DHT22;9206;50.994;4.538;2022-10-16T07:47:22;14.40;99.90
18163;DHT22;9206;50.994;4.538;2022-10-16T07:50:12;14.50;99.90
18163;DHT22;9206;50.994;4.538;2022-10-16T07:53:05;14.50;99.90
18163;DHT22;9206;50.994;4.538;2022-10-16T07:55:57;14.60;99.90
18163;DHT22;9206;50.994;4.538;2022-10-16T07:58:52;14.60;99.90
18163;DHT22;9206;50.994;4.538;2022-10-16T08:01:45;14.70;99.90
18163;DHT22;9206;50.994;4.538;2022-10-16T08:04:39;14.80;99.90
18163;DHT22;9206;50.994;4.538;2022-10-16T08:07:32;14.90;99.90
18163;DHT22;9206;50.994;4.538;2022-10-16T08:10:27;14.90;99.90
18163;DHT22;9206;50.994;4.538;2022-10-16T08:13:23;15.00;99.90
18163;DHT22;9206;50.994;4.538;2022-10-16T08:16:16;15.20;99.90
18163;DHT22;9206;50.994;4.538;2022-10-16T08:19:04;16.50;99.90
18163;DHT22;9206;50.994;4.538;2022-10-16T08:21:59;18.60;99.90
18163;DHT22;9206;50.994;4.538;2022-10-16T08:24:48;20.30;99.90
18163;DHT22;9206;50.994;4.538;2022-10-16T08:27:40;22.20;99.90
18163;DHT22;9206;50.994;4.538;2022-10-16T08:30:27;23.60;99.90
18163;DHT22;9206;50.994;4.538;2022-10-16T08:33:14;24.60;99.90
18163;DHT22;9206;50.994;4.538;2022-10-16T08:36:05;25.30;99.90
18163;DHT22;9206;50.994;4.538;2022-10-16T08:38:56;25.40;99.90
18163;DHT22;9206;50.994;4.538;2022-10-16T08:42:08;25.80;99.90
18163;DHT22;9206;50.994;4.538;2022-10-16T08:48:57;26.90;99.90
18163;DHT22;9206;50.994;4.538;2022-10-16T08:52:25;27.00;99.90
18163;DHT22;9206;50.994;4.538;2022-10-16T08:55:29;26.90;99.90
18163;DHT22;9206;50.994;4.538;2022-10-16T08:58:19;27.00;99.90
18163;DHT22;9206;50.994;4.538;2022-10-16T09:01:12;27.00;99.90
18163;DHT22;9206;50.994;4.538;2022-10-16T09:07:50;28.60;99.90
18163;DHT22;9206;50.994;4.538;2022-10-16T09:10:51;29.60;99.90
18163;DHT22;9206;50.994;4.538;2022-10-16T09:13:50;29.80;99.90
18163;DHT22;9206;50.994;4.538;2022-10-16T09:16:44;30.20;99.90
18163;DHT22;9206;50.994;4.538;2022-10-16T09:19:36;30.40;99.90
18163;DHT22;9206;50.994;4.538;2022-10-16T09:22:30;30.90;99.90
18163;DHT22;9206;50.994;4.538;2022-10-16T09:25:21;31.60;99.90
18163;DHT22;9206;50.994;4.538;2022-10-16T09:28:13;31.90;99.90
18163;DHT22;9206;50.994;4.538;2022-10-16T09:31:13;32.90;99.90
18163;DHT22;9206;50.994;4.538;2022-10-16T09:34:14;33.30;99.90
18163;DHT22;9206;50.994;4.538;2022-10-16T09:37:14;33.00;99.90
18163;DHT22;9206;50.994;4.538;2022-10-16T09:40:07;32.90;99.90
18163;DHT22;9206;50.994;4.538;2022-10-16T09:43:02;33.50;99.90
18163;DHT22;9206;50.994;4.538;2022-10-16T09:45:59;34.20;99.90
18163;DHT22;9206;50.994;4.538;2022-10-16T09:48:49;34.20;99.90
18163;DHT22;9206;50.994;4.538;2022-10-16T09:51:40;33.60;99.90
18163;DHT22;9206;50.994;4.538;2022-10-16T09:54:33;34.00;99.90
18163;DHT22;9206;50.994;4.538;2022-10-16T09:57:27;34.70;99.90
18163;DHT22;9206;50.994;4.538;2022-10-16T10:00:36;35.30;99.90
18163;DHT22;9206;50.994;4.538;2022-10-16T10:03:38;35.30;99.00
18163;DHT22;9206;50.994;4.538;2022-10-16T10:06:30;35.00;99.90
18163;DHT22;9206;50.994;4.538;2022-10-16T10:09:27;34.70;99.30
18163;DHT22;9206;50.994;4.538;2022-10-16T10:12:24;34.60;99.20
18163;DHT22;9206;50.994;4.538;2022-10-16T10:15:14;35.50;98.00
18163;DHT22;9206;50.994;4.538;2022-10-16T10:18:16;35.40;98.70
18163;DHT22;9206;50.994;4.538;2022-10-16T10:21:14;34.90;98.90
18163;DHT22;9206;50.994;4.538;2022-10-16T10:24:08;35.30;98.10
18163;DHT22;9206;50.994;4.538;2022-10-16T10:27:02;35.50;98.90
18163;DHT22;9206;50.994;4.538;2022-10-16T10:30:01;35.20;97.70
18163;DHT22;9206;50.994;4.538;2022-10-16T10:33:00;35.10;97.80
18163;DHT22;9206;50.994;4.538;2022-10-16T10:35:59;34.90;96.90
18163;DHT22;9206;50.994;4.538;2022-10-16T10:38:58;34.30;98.40
18163;DHT22;9206;50.994;4.538;2022-10-16T10:42:11;34.30;95.80
18163;DHT22;9206;50.994;4.538;2022-10-16T10:45:18;33.50;98.50
18163;DHT22;9206;50.994;4.538;2022-10-16T10:48:39;33.60;97.40
18163;DHT22;9206;50.994;4.538;2022-10-16T10:51:40;34.30;97.80
18163;DHT22;9206;50.994;4.538;2022-10-16T10:54:36;34.60;97.70
18163;DHT22;9206;50.994;4.538;2022-10-16T10:57:31;34.70;98.30
18163;DHT22;9206;50.994;4.538;2022-10-16T11:00:42;34.90;96.60
18163;DHT22;9206;50.994;4.538;2022-10-16T11:03:45;34.50;96.70
18163;DHT22;9206;50.994;4.538;2022-10-16T11:06:39;31.60;96.30
18163;DHT22;9206;50.994;4.538;2022-10-16T11:09:38;29.00;98.30
18163;DHT22;9206;50.994;4.538;2022-10-16T11:12:36;28.60;99.30
18163;DHT22;9206;50.994;4.538;2022-10-16T11:15:37;28.00;99.90
18163;DHT22;9206;50.994;4.538;2022-10-16T11:18:46;27.00;99.90
18163;DHT22;9206;50.994;4.538;2022-10-16T11:21:59;26.30;99.90
18163;DHT22;9206;50.994;4.538;2022-10-16T11:25:02;28.70;99.90
18163;DHT22;9206;50.994;4.538;2022-10-16T11:28:10;32.00;99.90
18163;DHT22;9206;50.994;4.538;2022-10-16T11:31:07;34.20;99.20
18163;DHT22;9206;50.994;4.538;2022-10-16T11:34:01;35.40;98.70
18163;DHT22;9206;50.994;4.538;2022-10-16T11:36:57;37.10;96.10
18163;DHT22;9206;50.994;4.538;2022-10-16T11:39:45;35.90;93.80
18163;DHT22;9206;50.994;4.538;2022-10-16T11:42:38;34.30;93.70
18163;DHT22;9206;50.994;4.538;2022-10-16T11:45:34;33.40;93.90
18163;DHT22;9206;50.994;4.538;2022-10-16T11:48:30;30.60;95.40
18163;DHT22;9206;50.994;4.538;2022-10-16T11:51:23;32.20;95.60
18163;DHT22;9206;50.994;4.538;2022-10-16T11:54:20;34.10;96.40
18163;DHT22;9206;50.994;4.538;2022-10-16T11:57:13;34.80;94.10
18163;DHT22;9206;50.994;4.538;2022-10-16T12:00:09;35.20;94.60
18163;DHT22;9206;50.994;4.538;2022-10-16T12:03:13;35.40;93.50
18163;DHT22;9206;50.994;4.538;2022-10-16T12:06:15;35.30;93.60
18163;DHT22;9206;50.994;4.538;2022-10-16T12:09:15;33.80;93.30
18163;DHT22;9206;50.994;4.538;2022-10-16T12:12:03;31.20;93.00
18163;DHT22;9206;50.994;4.538;2022-10-16T12:15:00;28.30;95.00
18163;DHT22;9206;50.994;4.538;2022-10-16T12:17:55;26.80;97.30
18163;DHT22;9206;50.994;4.538;2022-10-16T12:20:54;26.70;98.80
18163;DHT22;9206;50.994;4.538;2022-10-16T12:23:50;26.90;99.10
18163;DHT22;9206;50.994;4.538;2022-10-16T12:26:39;26.50;99.80
18163;DHT22;9206;50.994;4.538;2022-10-16T12:29:36;26.10;99.30
18163;DHT22;9206;50.994;4.538;2022-10-16T12:32:30;28.30;99.50
18163;DHT22;9206;50.994;4.538;2022-10-16T12:35:21;28.70;97.70
18163;DHT22;9206;50.994;4.538;2022-10-16T12:38:28;27.60;98.10
18163;DHT22;9206;50.994;4.538;2022-10-16T12:41:25;27.20;99.00
18163;DHT22;9206;50.994;4.538;2022-10-16T12:44:22;25.90;99.70
18163;DHT22;9206;50.994;4.538;2022-10-16T12:47:21;25.10;99.90
18163;DHT22;9206;50.994;4.538;2022-10-16T12:53:20;24.60;99.90
18163;DHT22;9206;50.994;4.538;2022-10-16T12:56:13;23.80;99.90
18163;DHT22;9206;50.994;4.538;2022-10-16T12:59:12;23.30;99.90
18163;DHT22;9206;50.994;4.538;2022-10-16T13:02:26;22.80;99.90
18163;DHT22;9206;50.994;4.538;2022-10-16T13:05:30;22.40;99.90
18163;DHT22;9206;50.994;4.538;2022-10-16T13:08:46;22.00;99.90
18163;DHT22;9206;50.994;4.538;2022-10-16T13:11:57;21.60;99.90
18163;DHT22;9206;50.994;4.538;2022-10-16T13:15:07;21.50;99.90
18163;DHT22;9206;50.994;4.538;2022-10-16T13:18:14;21.40;99.90
18163;DHT22;9206;50.994;4.538;2022-10-16T13:21:11;21.50;99.90
18163;DHT22;9206;50.994;4.538;2022-10-16T13:24:12;21.40;99.90
18163;DHT22;9206;50.994;4.538;2022-10-16T13:27:09;21.00;99.90
18163;DHT22;9206;50.994;4.538;2022-10-16T13:30:02;20.90;99.90
18163;DHT22;9206;50.994;4.538;2022-10-16T13:33:02;20.80;99.90
18163;DHT22;9206;50.994;4.538;2022-10-16T13:35:56;20.70;99.90
18163;DHT22;9206;50.994;4.538;2022-10-16T13:39:00;20.70;99.90
18163;DHT22;9206;50.994;4.538;2022-10-16T13:42:06;20.70;99.90
18163;DHT22;9206;50.994;4.538;2022-10-16T13:45:00;21.00;99.90
18163;DHT22;9206;50.994;4.538;2022-10-16T13:47:48;21.30;99.90
18163;DHT22;9206;50.994;4.538;2022-10-16T13:50:36;21.50;99.90
18163;DHT22;9206;50.994;4.538;2022-10-16T13:53:26;21.30;99.90
18163;DHT22;9206;50.994;4.538;2022-10-16T13:56:17;21.30;99.90
18163;DHT22;9206;50.994;4.538;2022-10-16T13:59:22;21.10;99.90
18163;DHT22;9206;50.994;4.538;2022-10-16T14:02:21;21.10;99.90
18163;DHT22;9206;50.994;4.538;2022-10-16T14:05:13;20.80;99.90
18163;DHT22;9206;50.994;4.538;2022-10-16T14:08:01;20.80;99.90
18163;DHT22;9206;50.994;4.538;2022-10-16T14:10:49;20.80;99.90
18163;DHT22;9206;50.994;4.538;2022-10-16T14:13:44;20.80;99.90
18163;DHT22;9206;50.994;4.538;2022-10-16T14:16:34;20.90;99.90
18163;DHT22;9206;50.994;4.538;2022-10-16T14:19:26;20.90;99.90
18163;DHT22;9206;50.994;4.538;2022-10-16T14:22:30;20.80;99.90
18163;DHT22;9206;50.994;4.538;2022-10-16T14:25:25;20.80;99.90
18163;DHT22;9206;50.994;4.538;2022-10-16T14:28:17;20.60;99.90
18163;DHT22;9206;50.994;4.538;2022-10-16T14:31:27;20.60;99.90
18163;DHT22;9206;50.994;4.538;2022-10-16T14:34:29;20.60;99.90
18163;DHT22;9206;50.994;4.538;2022-10-16T14:37:24;20.60;99.90
18163;DHT22;9206;50.994;4.538;2022-10-16T14:40:14;20.40;99.90
18163;DHT22;9206;50.994;4.538;2022-10-16T14:43:05;20.40;99.90
18163;DHT22;9206;50.994;4.538;2022-10-16T14:45:58;20.30;99.90
18163;DHT22;9206;50.994;4.538;2022-10-16T14:48:49;20.30;99.90
18163;DHT22;9206;50.994;4.538;2022-10-16T14:51:42;20.20;99.90
18163;DHT22;9206;50.994;4.538;2022-10-16T14:54:43;20.10;99.90
18163;DHT22;9206;50.994;4.538;2022-10-16T14:57:33;20.10;99.90
18163;DHT22;9206;50.994;4.538;2022-10-16T15:00:23;20.10;99.90
18163;DHT22;9206;50.994;4.538;2022-10-16T15:03:14;20.10;99.90
18163;DHT22;9206;50.994;4.538;2022-10-16T15:13:14;20.10;99.90
18163;DHT22;9206;50.994;4.538;2022-10-16T15:16:14;20.00;99.90
18163;DHT22;9206;50.994;4.538;2022-10-16T15:19:10;20.00;99.90
18163;DHT22;9206;50.994;4.538;2022-10-16T15:22:09;19.90;99.90
18163;DHT22;9206;50.994;4.538;2022-10-16T15:25:29;19.80;99.90
18163;DHT22;9206;50.994;4.538;2022-10-16T15:36:00;19.70;99.90
18163;DHT22;9206;50.994;4.538;2022-10-16T15:39:24;19.70;99.90
18163;DHT22;9206;50.994;4.538;2022-10-16T15:42:15;19.60;99.90
18163;DHT22;9206;50.994;4.538;2022-10-16T15:45:21;19.50;99.90
18163;DHT22;9206;50.994;4.538;2022-10-16T15:48:11;19.30;99.90
18163;DHT22;9206;50.994;4.538;2022-10-16T15:51:05;19.10;99.90
18163;DHT22;9206;50.994;4.538;2022-10-16T15:54:02;19.00;99.90
18163;DHT22;9206;50.994;4.538;2022-10-16T15:56:52;18.90;99.90
18163;DHT22;9206;50.994;4.538;2022-10-16T15:59:45;18.80;99.90
18163;DHT22;9206;50.994;4.538;2022-10-16T16:10:08;18.50;99.90
18163;DHT22;9206;50.994;4.538;2022-10-16T16:13:11;18.40;99.90
18163;DHT22;9206;50.994;4.538;2022-10-16T16:16:06;18.30;99.90
18163;DHT22;9206;50.994;4.538;2022-10-16T16:19:39;18.20;99.90
18163;DHT22;9206;50.994;4.538;2022-10-16T16:22:33;18.00;99.90
18163;DHT22;9206;50.994;4.538;2022-10-16T16:25:28;17.90;99.90
18163;DHT22;9206;50.994;4.538;2022-10-16T16:28:21;17.90;99.90
18163;DHT22;9206;50.994;4.538;2022-10-16T16:34:39;17.80;99.90
18163;DHT22;9206;50.994;4.538;2022-10-16T16:37:52;17.80;99.90
18163;DHT22;9206;50.994;4.538;2022-10-16T16:41:15;17.80;99.90
18163;DHT22;9206;50.994;4.538;2022-10-16T16:44:18;17.70;99.90
18163;DHT22;9206;50.994;4.538;2022-10-16T16:47:07;17.70;99.90
18163;DHT22;9206;50.994;4.538;2022-10-16T16:50:10;17.60;99.90
18163;DHT22;9206;50.994;4.538;2022-10-16T16:52:57;17.50;99.90
18163;DHT22;9206;50.994;4.538;2022-10-16T16:55:54;17.40;99.90
18163;DHT22;9206;50.994;4.538;2022-10-16T16:59:14;17.40;99.90
18163;DHT22;9206;50.994;4.538;2022-10-16T17:29:49;17.10;99.90
18163;DHT22;9206;50.994;4.538;2022-10-16T17:33:23;17.10;99.90
18163;DHT22;9206;50.994;4.538;2022-10-16T17:36:49;17.00;99.90
18163;DHT22;9206;50.994;4.538;2022-10-16T17:47:42;16.80;99.90
18163;DHT22;9206;50.994;4.538;2022-10-16T17:51:15;16.70;99.90
18163;DHT22;9206;50.994;4.538;2022-10-16T17:54:15;16.60;99.90
18163;DHT22;9206;50.994;4.538;2022-10-16T17:57:26;16.50;99.90
18163;DHT22;9206;50.994;4.538;2022-10-16T18:00:29;16.40;99.90
18163;DHT22;9206;50.994;4.538;2022-10-16T18:03:31;16.40;99.90
18163;DHT22;9206;50.994;4.538;2022-10-16T18:07:09;16.30;99.90
18163;DHT22;9206;50.994;4.538;2022-10-16T18:10:43;16.20;99.90
18163;DHT22;9206;50.994;4.538;2022-10-16T18:14:37;16.10;99.90
18163;DHT22;9206;50.994;4.538;2022-10-16T18:18:30;16.10;99.90
18163;DHT22;9206;50.994;4.538;2022-10-16T18:39:30;15.90;99.90
18163;DHT22;9206;50.994;4.538;2022-10-16T18:42:20;15.90;99.90
18163;DHT22;9206;50.994;4.538;2022-10-16T18:45:13;15.90;99.90
18163;DHT22;9206;50.994;4.538;2022-10-16T18:48:07;15.90;99.90
18163;DHT22;9206;50.994;4.538;2022-10-16T18:51:14;15.90;99.90
18163;DHT22;9206;50.994;4.538;2022-10-16T18:54:14;15.90;99.90
18163;DHT22;9206;50.994;4.538;2022-10-16T18:57:12;15.90;99.90
18163;DHT22;9206;50.994;4.538;2022-10-16T19:00:10;15.90;99.90
18163;DHT22;9206;50.994;4.538;2022-10-16T19:03:08;15.80;99.90
18163;DHT22;9206;50.994;4.538;2022-10-16T19:06:16;15.80;99.90
18163;DHT22;9206;50.994;4.538;2022-10-16T19:10:01;15.80;99.90
18163;DHT22;9206;50.994;4.538;2022-10-16T19:46:18;15.50;99.90
18163;DHT22;9206;50.994;4.538;2022-10-16T19:49:14;15.60;99.90
18163;DHT22;9206;50.994;4.538;2022-10-16T19:52:02;15.50;99.90
18163;DHT22;9206;50.994;4.538;2022-10-16T19:58:36;15.50;99.90
18163;DHT22;9206;50.994;4.538;2022-10-16T20:02:03;15.40;99.90
18163;DHT22;9206;50.994;4.538;2022-10-16T20:05:15;15.40;99.90
18163;DHT22;9206;50.994;4.538;2022-10-16T20:08:05;15.30;99.90
18163;DHT22;9206;50.994;4.538;2022-10-16T20:10:54;15.30;99.90
18163;DHT22;9206;50.994;4.538;2022-10-16T20:13:44;15.40;99.90
18163;DHT22;9206;50.994;4.538;2022-10-16T20:35:39;15.40;99.90
18163;DHT22;9206;50.994;4.538;2022-10-16T20:55:13;15.30;99.90
18163;DHT22;9206;50.994;4.538;2022-10-16T21:02:14;15.30;99.90
18163;DHT22;9206;50.994;4.538;2022-10-16T21:09:12;15.10;99.90
18163;DHT22;9206;50.994;4.538;2022-10-16T21:12:19;15.10;99.90
18163;DHT22;9206;50.994;4.538;2022-10-16T21:15:55;15.10;99.90
18163;DHT22;9206;50.994;4.538;2022-10-16T21:19:08;15.10;99.90
18163;DHT22;9206;50.994;4.538;2022-10-16T21:26:20;15.00;99.90
18163;DHT22;9206;50.994;4.538;2022-10-16T22:21:35;14.60;99.90
18163;DHT22;9206;50.994;4.538;2022-10-16T22:40:27;14.50;99.90
18163;DHT22;9206;50.994;4.538;2022-10-16T22:43:52;14.50;99.90
18163;DHT22;9206;50.994;4.538;2022-10-16T22:46:50;14.40;99.90
18163;DHT22;9206;50.994;4.538;2022-10-16T22:50:38;14.40;99.90
18163;DHT22;9206;50.994;4.538;2022-10-16T22:54:02;14.40;99.90
18163;DHT22;9206;50.994;4.538;2022-10-16T23:01:35;14.40;99.90
18163;DHT22;9206;50.994;4.538;2022-10-16T23:09:09;14.40;99.90
18163;DHT22;9206;50.994;4.538;2022-10-16T23:12:33;14.30;99.90
18163;DHT22;9206;50.994;4.538;2022-10-16T23:55:57;14.20;99.90
